North Zulch, Texas
Current Conditions -  °F | °C
As of 4:35 AM on Saturday 22 Nov 2014 (Local Time) from KCFD Reporting Station
Overcast Overcast  
Wind Chill: 61°   Ceiling: 600
Heat Index: 61°   Visibility: 10mi
Dew Point: 60°   Wind: 13mph
Humidity: 96%   Direction: 120°ESE
Pressure: 30.08"   Gusts: 20mph
Location:  30.92°N, 96.11°W
Report Text: KCFD 221035Z AUTO 12011G17KT 10SM OVC006 16/15 A3008 RMK AO2 LTG DSNT NW T01610154
Loading
Personal Weather Stations






























Interactive Weather Map New forecast layout! Learn more

10-Day Weather Forecast

Advertisements
Track Severe Weather on mobile